Time;durP1;ratioP1;P1;durP2;ratioP2;P2;SDS_P1;SDS_P2;PMS_P1;PMS_P2;Temp;Humidity;BMP_temperature;BMP_pressure;BME280_temperature;BME280_humidity;BME280_pressure;Samples;Min_cycle;Max_cycle;Signal;HPM_P1;HPM_P2
2024/03/21 00:02:19;;;;;;;40.42;22.80;;;;;;;;;;4977468;28;20018;-92
2024/03/21 00:04:45;;;;;;;42.90;23.80;;;;;;;;;;4960396;28;20037;-93
2024/03/21 00:07:13;;;;;;;42.83;23.58;;;;;;;;;;4959215;28;20082;-90
2024/03/21 00:09:40;;;;;;;40.15;24.38;;;;;;;;;;4959154;28;20050;-92
2024/03/21 00:12:06;;;;;;;50.33;24.98;;;;;;;;;;4960248;28;20026;-91
2024/03/21 00:14:32;;;;;;;45.08;24.67;;;;;;;;;;4959126;28;20121;-93
2024/03/21 00:16:59;;;;;;;53.00;27.63;;;;;;;;;;4967556;28;20030;-92
2024/03/21 00:19:25;;;;;;;68.88;29.38;;;;;;;;;;4965446;28;20400;-92
2024/03/21 00:21:51;;;;;;;54.45;27.33;;;;;;;;;;4968845;28;20076;-91
2024/03/21 00:24:17;;;;;;;47.65;25.80;;;;;;;;;;4963990;28;20030;-93
2024/03/21 00:26:44;;;;;;;47.80;24.25;;;;;;;;;;4978481;28;20030;-92
2024/03/21 00:32:14;;;;;;;43.70;22.85;;;;;;;;;;4992967;28;20030;-91
2024/03/21 00:34:40;;;;;;;56.65;28.63;;;;;;;;;;4963003;28;20180;-91
2024/03/21 00:37:06;;;;;;;40.70;21.63;;;;;;;;;;4970247;28;20023;-93
2024/03/21 00:39:32;;;;;;;53.25;28.58;;;;;;;;;;4978416;28;20042;-92
2024/03/21 00:41:58;;;;;;;48.20;24.60;;;;;;;;;;4977829;28;20068;-91
2024/03/21 00:44:25;;;;;;;45.63;25.27;;;;;;;;;;4955446;29;20031;-92
2024/03/21 00:46:52;;;;;;;44.38;24.02;;;;;;;;;;4939621;29;20032;-92
2024/03/21 00:49:19;;;;;;;36.15;19.73;;;;;;;;;;4939699;29;20050;-91
2024/03/21 00:51:45;;;;;;;37.60;20.85;;;;;;;;;;4939513;29;20086;-92
2024/03/21 00:54:12;;;;;;;35.72;20.95;;;;;;;;;;4971195;28;20125;-92
2024/03/21 00:56:38;;;;;;;31.70;18.90;;;;;;;;;;4977612;28;20026;-92
2024/03/21 00:59:05;;;;;;;32.67;19.17;;;;;;;;;;4970631;28;20058;-91
2024/03/21 01:01:31;;;;;;;33.40;18.58;;;;;;;;;;4958363;28;20065;-93
2024/03/21 01:03:57;;;;;;;33.72;19.75;;;;;;;;;;4958254;28;20031;-91
2024/03/21 01:06:23;;;;;;;38.17;20.92;;;;;;;;;;4958330;28;20022;-92
2024/03/21 01:08:49;;;;;;;37.63;21.58;;;;;;;;;;4977686;28;20030;-91
2024/03/21 01:11:15;;;;;;;38.25;20.67;;;;;;;;;;4977481;28;20026;-92
2024/03/21 01:13:41;;;;;;;37.33;21.48;;;;;;;;;;4967786;28;20030;-91
2024/03/21 01:16:08;;;;;;;33.33;19.52;;;;;;;;;;4959475;28;20037;-91
2024/03/21 01:18:38;;;;;;;33.28;19.35;;;;;;;;;;4942545;28;20054;-92
2024/03/21 01:21:05;;;;;;;37.15;21.73;;;;;;;;;;4958320;28;20055;-91
2024/03/21 01:23:32;;;;;;;30.50;20.20;;;;;;;;;;4958414;28;20023;-92
2024/03/21 01:25:59;;;;;;;37.70;21.23;;;;;;;;;;4975639;28;20031;-91
2024/03/21 01:28:25;;;;;;;33.20;18.58;;;;;;;;;;4958298;28;20058;-90
2024/03/21 01:30:51;;;;;;;32.25;20.15;;;;;;;;;;4957743;28;20038;-90
2024/03/21 01:33:21;;;;;;;36.03;19.45;;;;;;;;;;4958364;28;20027;-92
2024/03/21 01:35:47;;;;;;;35.42;20.70;;;;;;;;;;4958722;28;20031;-91
2024/03/21 01:38:16;;;;;;;36.58;21.02;;;;;;;;;;4958009;28;20045;-89
2024/03/21 01:40:42;;;;;;;33.30;22.25;;;;;;;;;;4958766;28;20030;-92
2024/03/21 01:43:24;;;;;;;43.40;22.70;;;;;;;;;;4967688;28;20034;-90
2024/03/21 01:46:09;;;;;;;46.20;24.73;;;;;;;;;;4992357;28;20014;-91
2024/03/21 01:48:39;;;;;;;51.67;24.77;;;;;;;;;;4991904;28;20069;-90
2024/03/21 01:51:06;;;;;;;46.92;25.25;;;;;;;;;;4981416;28;20022;-91
2024/03/21 01:53:32;;;;;;;41.28;24.33;;;;;;;;;;4980638;28;20076;-91
2024/03/21 01:55:59;;;;;;;44.65;24.83;;;;;;;;;;4966321;28;20026;-91
2024/03/21 01:58:25;;;;;;;51.20;27.60;;;;;;;;;;4961241;28;20058;-91
2024/03/21 02:00:51;;;;;;;35.88;23.58;;;;;;;;;;4961427;28;20038;-92
2024/03/21 02:03:17;;;;;;;32.95;21.90;;;;;;;;;;4961108;28;20030;-90
2024/03/21 02:05:43;;;;;;;53.75;27.90;;;;;;;;;;4961128;28;20045;-90
2024/03/21 02:08:10;;;;;;;48.28;26.38;;;;;;;;;;4961249;28;20496;-90
2024/03/21 02:10:36;;;;;;;43.50;24.42;;;;;;;;;;4961494;28;20061;-91
2024/03/21 02:13:05;;;;;;;49.72;27.23;;;;;;;;;;4978435;28;20034;-91
2024/03/21 02:15:32;;;;;;;37.75;22.75;;;;;;;;;;4960866;28;20027;-91
2024/03/21 02:17:58;;;;;;;43.95;22.45;;;;;;;;;;4961087;28;20034;-90
2024/03/21 02:20:24;;;;;;;39.88;23.58;;;;;;;;;;4975268;28;20045;-90
2024/03/21 02:22:51;;;;;;;36.95;21.25;;;;;;;;;;4980289;28;20475;-91
2024/03/21 02:25:17;;;;;;;37.13;20.50;;;;;;;;;;4979966;28;20053;-91
2024/03/21 02:27:43;;;;;;;38.97;22.38;;;;;;;;;;4979951;28;20033;-91
2024/03/21 02:30:10;;;;;;;36.80;20.27;;;;;;;;;;4980029;28;20509;-90
2024/03/21 02:32:37;;;;;;;43.17;22.63;;;;;;;;;;4980545;28;20105;-90
2024/03/21 02:35:04;;;;;;;42.53;22.10;;;;;;;;;;4980030;28;20026;-91
2024/03/21 02:37:30;;;;;;;34.35;19.58;;;;;;;;;;4979716;28;20054;-90
2024/03/21 02:39:56;;;;;;;35.85;20.15;;;;;;;;;;4980345;28;20058;-91
2024/03/21 02:42:24;;;;;;;29.27;19.40;;;;;;;;;;4976183;28;20055;-90
2024/03/21 02:44:51;;;;;;;31.50;19.20;;;;;;;;;;4977485;28;20064;-92
2024/03/21 02:47:18;;;;;;;30.05;19.33;;;;;;;;;;4978379;28;20030;-91
2024/03/21 02:49:44;;;;;;;29.35;17.48;;;;;;;;;;4979767;28;20029;-90
2024/03/21 02:52:10;;;;;;;28.25;19.00;;;;;;;;;;4979815;28;20030;-90
2024/03/21 02:54:37;;;;;;;30.10;20.60;;;;;;;;;;4982178;28;20483;-90
2024/03/21 02:57:03;;;;;;;31.58;19.58;;;;;;;;;;4994061;28;20050;-90
2024/03/21 02:59:32;;;;;;;32.35;20.30;;;;;;;;;;5005760;28;20046;-91
2024/03/21 03:01:58;;;;;;;35.53;20.58;;;;;;;;;;4998812;28;20018;-90
2024/03/21 03:04:24;;;;;;;38.65;22.95;;;;;;;;;;4999199;28;20121;-91
2024/03/21 03:06:51;;;;;;;35.47;22.17;;;;;;;;;;5016534;28;20022;-91
2024/03/21 03:09:17;;;;;;;34.45;22.15;;;;;;;;;;4999104;28;20038;-91
2024/03/21 03:11:43;;;;;;;37.95;21.83;;;;;;;;;;4998657;28;20026;-91
2024/03/21 03:14:09;;;;;;;32.83;22.58;;;;;;;;;;4998531;28;20030;-90
2024/03/21 03:16:35;;;;;;;32.95;22.30;;;;;;;;;;4998368;28;20018;-92
2024/03/21 03:19:02;;;;;;;32.55;20.92;;;;;;;;;;4998493;28;20038;-91
2024/03/21 03:21:31;;;;;;;45.60;27.58;;;;;;;;;;4998313;28;20026;-89
2024/03/21 03:23:57;;;;;;;39.17;24.40;;;;;;;;;;4998506;28;20127;-91
2024/03/21 03:26:24;;;;;;;46.33;27.05;;;;;;;;;;4984376;28;20443;-89
2024/03/21 03:28:50;;;;;;;45.63;28.73;;;;;;;;;;4983252;28;20026;-90
2024/03/21 03:31:16;;;;;;;44.30;31.10;;;;;;;;;;5012841;28;20030;-90
2024/03/21 03:36:29;;;;;;;47.05;30.00;;;;;;;;;;5015897;28;20032;-90
2024/03/21 03:38:55;;;;;;;48.47;34.78;;;;;;;;;;4997998;28;20053;-89
2024/03/21 03:41:22;;;;;;;47.42;33.65;;;;;;;;;;4998549;28;20096;-90
2024/03/21 03:43:49;;;;;;;46.60;31.15;;;;;;;;;;4998386;28;20029;-91
2024/03/21 03:46:15;;;;;;;48.80;35.10;;;;;;;;;;4998227;28;20026;-89
2024/03/21 03:48:41;;;;;;;51.00;35.60;;;;;;;;;;4998577;28;20030;-88
2024/03/21 03:51:07;;;;;;;49.00;36.10;;;;;;;;;;4998000;28;20030;-90
2024/03/21 03:53:34;;;;;;;50.38;41.80;;;;;;;;;;4997910;28;20037;-89
2024/03/21 03:56:00;;;;;;;50.65;37.90;;;;;;;;;;4991153;28;20049;-91
2024/03/21 03:58:26;;;;;;;47.00;33.78;;;;;;;;;;4978097;28;20054;-92
2024/03/21 04:00:58;;;;;;;49.55;33.42;;;;;;;;;;4978544;28;20029;-91
2024/03/21 04:03:26;;;;;;;44.30;30.37;;;;;;;;;;4977950;28;20058;-90
2024/03/21 04:05:59;;;;;;;46.50;34.70;;;;;;;;;;4978224;28;20026;-91
2024/03/21 04:08:25;;;;;;;43.13;32.35;;;;;;;;;;4978565;28;20030;-92
2024/03/21 04:10:51;;;;;;;45.83;34.45;;;;;;;;;;4978806;28;20069;-92
2024/03/21 04:13:18;;;;;;;44.28;36.88;;;;;;;;;;4978099;28;20030;-91
2024/03/21 04:15:44;;;;;;;44.75;39.20;;;;;;;;;;4978563;28;20027;-90
2024/03/21 04:18:11;;;;;;;46.65;39.22;;;;;;;;;;4978433;28;20042;-91
2024/03/21 04:20:37;;;;;;;44.90;36.13;;;;;;;;;;4996211;28;20101;-92
2024/03/21 04:23:04;;;;;;;43.63;37.55;;;;;;;;;;4997976;28;20120;-90
2024/03/21 04:26:14;;;;;;;44.17;36.10;;;;;;;;;;4998125;28;20029;-92
2024/03/21 04:28:40;;;;;;;40.15;27.67;;;;;;;;;;4997332;28;20033;-91
2024/03/21 04:31:06;;;;;;;39.55;29.20;;;;;;;;;;4994368;28;20113;-91
2024/03/21 04:33:33;;;;;;;57.05;30.35;;;;;;;;;;4977984;28;20030;-90
2024/03/21 04:36:00;;;;;;;38.53;32.10;;;;;;;;;;4978038;28;20025;-91
2024/03/21 04:38:26;;;;;;;43.13;35.80;;;;;;;;;;4977755;28;20380;-92
2024/03/21 04:40:52;;;;;;;40.65;33.20;;;;;;;;;;4977863;28;20074;-90
2024/03/21 04:43:18;;;;;;;43.00;37.63;;;;;;;;;;4986344;28;20045;-92
2024/03/21 04:45:44;;;;;;;50.80;45.25;;;;;;;;;;4977913;28;20062;-92
2024/03/21 04:48:10;;;;;;;54.85;49.53;;;;;;;;;;4978043;28;20019;-91
2024/03/21 04:50:36;;;;;;;56.70;51.53;;;;;;;;;;4977843;28;20065;-92
2024/03/21 04:53:03;;;;;;;56.30;51.15;;;;;;;;;;4977960;28;20018;-90
2024/03/21 04:55:29;;;;;;;54.53;49.65;;;;;;;;;;4977824;28;20033;-90
2024/03/21 04:57:55;;;;;;;56.45;50.92;;;;;;;;;;4977693;28;20054;-90
2024/03/21 05:00:22;;;;;;;55.22;49.83;;;;;;;;;;4978060;28;20041;-90
2024/03/21 05:02:48;;;;;;;53.53;48.50;;;;;;;;;;4977928;28;20023;-89
2024/03/21 05:05:14;;;;;;;51.90;46.55;;;;;;;;;;4977770;28;20391;-90
2024/03/21 05:07:41;;;;;;;50.17;45.58;;;;;;;;;;4977747;28;20030;-90
2024/03/21 05:10:07;;;;;;;49.83;45.08;;;;;;;;;;4977790;28;20054;-89
2024/03/21 05:12:33;;;;;;;47.85;43.45;;;;;;;;;;4977723;28;20468;-90
2024/03/21 05:14:59;;;;;;;45.22;40.67;;;;;;;;;;4993090;28;20025;-92
2024/03/21 05:17:26;;;;;;;44.55;40.17;;;;;;;;;;4999119;28;20043;-90
2024/03/21 05:19:52;;;;;;;43.53;39.25;;;;;;;;;;4983584;28;20031;-92
2024/03/21 05:22:18;;;;;;;43.42;38.47;;;;;;;;;;4985495;28;20118;-91
2024/03/21 05:24:44;;;;;;;38.20;34.42;;;;;;;;;;4983397;28;20037;-91
2024/03/21 05:27:15;;;;;;;34.65;30.02;;;;;;;;;;4982836;28;20026;-91
2024/03/21 05:29:41;;;;;;;35.17;23.80;;;;;;;;;;4985864;28;20054;-90
2024/03/21 05:32:08;;;;;;;30.83;22.88;;;;;;;;;;4984591;28;20815;-90
2024/03/21 05:34:34;;;;;;;34.20;21.30;;;;;;;;;;4984139;28;20028;-91
2024/03/21 05:37:00;;;;;;;27.00;21.30;;;;;;;;;;4983473;28;20121;-91
2024/03/21 05:39:27;;;;;;;26.42;18.23;;;;;;;;;;4967371;28;20055;-91
2024/03/21 05:41:55;;;;;;;29.75;16.20;;;;;;;;;;4985051;28;20056;-91
2024/03/21 05:44:21;;;;;;;24.55;14.35;;;;;;;;;;4984069;28;20029;-92
2024/03/21 05:46:50;;;;;;;30.48;20.00;;;;;;;;;;4984180;28;20034;-92
2024/03/21 05:49:16;;;;;;;39.65;29.75;;;;;;;;;;4983659;28;20078;-91
2024/03/21 05:51:44;;;;;;;35.00;31.30;;;;;;;;;;4984205;28;20030;-91
2024/03/21 05:54:17;;;;;;;29.15;25.33;;;;;;;;;;4984657;28;20036;-90
2024/03/21 05:56:43;;;;;;;27.65;19.80;;;;;;;;;;4983285;28;20026;-91
2024/03/21 05:59:12;;;;;;;30.15;24.63;;;;;;;;;;4983773;28;20137;-89
2024/03/21 06:01:38;;;;;;;31.63;28.30;;;;;;;;;;4983023;28;20026;-91
2024/03/21 06:04:08;;;;;;;38.38;34.53;;;;;;;;;;4965717;28;20207;-87
2024/03/21 06:06:39;;;;;;;42.55;38.95;;;;;;;;;;4982831;28;20202;-90
2024/03/21 06:09:10;;;;;;;51.75;47.35;;;;;;;;;;4982134;28;20034;-92
2024/03/21 06:11:37;;;;;;;52.97;48.25;;;;;;;;;;4982249;28;20027;-90
2024/03/21 06:14:03;;;;;;;62.97;57.50;;;;;;;;;;4982389;28;20073;-90
2024/03/21 06:16:29;;;;;;;64.53;59.00;;;;;;;;;;4996870;28;20103;-93
2024/03/21 06:18:56;;;;;;;57.38;51.88;;;;;;;;;;4994532;28;20038;-95
2024/03/21 06:21:36;;;;;;;54.53;49.63;;;;;;;;;;5005511;28;20089;-95
2024/03/21 06:24:11;;;;;;;54.85;50.22;;;;;;;;;;4973113;28;20471;-95
2024/03/21 06:26:37;;;;;;;55.38;49.85;;;;;;;;;;4970312;28;20041;-95
2024/03/21 06:29:07;;;;;;;51.83;46.90;;;;;;;;;;4986834;28;20030;-95
2024/03/21 06:35:02;;;;;;;49.50;45.03;;;;;;;;;;4958432;29;20046;-94
2024/03/21 06:37:31;;;;;;;48.78;44.28;;;;;;;;;;4941355;29;20034;-91
2024/03/21 06:39:58;;;;;;;45.50;40.70;;;;;;;;;;4940874;29;20046;-90
2024/03/21 06:42:24;;;;;;;44.47;39.97;;;;;;;;;;4952575;28;20035;-89
2024/03/21 06:44:50;;;;;;;46.45;38.45;;;;;;;;;;4959711;28;20571;-91
2024/03/21 06:47:19;;;;;;;44.10;39.72;;;;;;;;;;4960722;28;20026;-94
2024/03/21 06:49:45;;;;;;;43.58;39.40;;;;;;;;;;4951413;29;20027;-91
2024/03/21 06:52:11;;;;;;;42.53;38.53;;;;;;;;;;4939403;28;20507;-91
2024/03/21 06:54:37;;;;;;;40.35;36.30;;;;;;;;;;4959722;28;20051;-90
2024/03/21 06:57:04;;;;;;;40.05;36.08;;;;;;;;;;4960226;28;20074;-92
2024/03/21 06:59:30;;;;;;;37.38;33.58;;;;;;;;;;4972687;28;20062;-91
2024/03/21 07:01:57;;;;;;;32.63;29.15;;;;;;;;;;4968433;28;20049;-91
2024/03/21 07:04:23;;;;;;;34.85;29.30;;;;;;;;;;4961230;28;20027;-90
2024/03/21 07:06:49;;;;;;;31.83;27.42;;;;;;;;;;4940301;29;20027;-90
2024/03/21 07:09:16;;;;;;;29.85;24.33;;;;;;;;;;4948138;28;20486;-92
2024/03/21 07:11:42;;;;;;;29.70;23.80;;;;;;;;;;4959298;28;20066;-92
2024/03/21 07:14:09;;;;;;;26.75;22.30;;;;;;;;;;4959776;28;20499;-91
2024/03/21 07:16:35;;;;;;;23.40;19.90;;;;;;;;;;4959174;28;20122;-92
2024/03/21 07:19:02;;;;;;;22.90;20.30;;;;;;;;;;4959479;28;20042;-91
2024/03/21 07:21:28;;;;;;;22.58;20.13;;;;;;;;;;4959420;28;20030;-90
2024/03/21 07:23:54;;;;;;;23.88;20.05;;;;;;;;;;4959140;28;20039;-92
2024/03/21 07:26:21;;;;;;;26.10;18.95;;;;;;;;;;4941901;29;20047;-93
2024/03/21 07:28:49;;;;;;;23.77;19.63;;;;;;;;;;4955228;28;20042;-92
2024/03/21 07:31:15;;;;;;;25.10;20.40;;;;;;;;;;4958876;28;20035;-92
2024/03/21 07:33:43;;;;;;;20.98;18.67;;;;;;;;;;4975036;28;20473;-91
2024/03/21 07:36:09;;;;;;;25.05;22.20;;;;;;;;;;4959237;28;20036;-92
2024/03/21 07:38:35;;;;;;;26.98;22.48;;;;;;;;;;4996470;28;20045;-91
2024/03/21 07:41:01;;;;;;;24.27;19.45;;;;;;;;;;4998530;28;20050;-91
2024/03/21 07:43:28;;;;;;;22.05;19.70;;;;;;;;;;4998069;28;20029;-92
2024/03/21 07:45:54;;;;;;;22.05;18.63;;;;;;;;;;4997806;28;20030;-93
2024/03/21 07:48:20;;;;;;;24.17;19.27;;;;;;;;;;4998042;28;20061;-93
2024/03/21 07:50:46;;;;;;;25.27;18.98;;;;;;;;;;4999027;28;20025;-92
2024/03/21 07:53:13;;;;;;;22.80;18.23;;;;;;;;;;4998241;28;20026;-90
2024/03/21 07:55:39;;;;;;;25.60;19.90;;;;;;;;;;4998224;28;20029;-91
2024/03/21 07:58:06;;;;;;;20.83;17.67;;;;;;;;;;4997833;28;20108;-91
2024/03/21 08:00:33;;;;;;;26.13;20.63;;;;;;;;;;5001141;28;20029;-90
2024/03/21 08:03:00;;;;;;;22.65;19.23;;;;;;;;;;4998682;28;20021;-91
2024/03/21 08:05:26;;;;;;;21.05;18.70;;;;;;;;;;4988946;28;20169;-89
2024/03/21 08:07:53;;;;;;;22.50;19.88;;;;;;;;;;4991367;28;20467;-93
2024/03/21 08:10:20;;;;;;;27.33;21.55;;;;;;;;;;4998268;28;20026;-91
2024/03/21 08:12:46;;;;;;;23.05;20.17;;;;;;;;;;4997747;28;20502;-92
2024/03/21 08:15:12;;;;;;;23.08;20.25;;;;;;;;;;4998355;28;20490;-91
2024/03/21 08:17:38;;;;;;;28.48;23.02;;;;;;;;;;4997959;28;20478;-91
2024/03/21 08:20:06;;;;;;;26.08;21.02;;;;;;;;;;4997809;28;20148;-92
2024/03/21 08:22:32;;;;;;;27.77;21.80;;;;;;;;;;4998264;28;20541;-93
2024/03/21 08:24:58;;;;;;;25.23;20.27;;;;;;;;;;4997900;28;20044;-89
2024/03/21 08:27:24;;;;;;;24.38;20.55;;;;;;;;;;4999237;28;20021;-90
2024/03/21 08:29:50;;;;;;;35.22;25.95;;;;;;;;;;4998025;28;20038;-91
2024/03/21 08:32:23;;;;;;;26.20;21.90;;;;;;;;;;4998352;28;20053;-90
2024/03/21 08:34:50;;;;;;;26.17;21.52;;;;;;;;;;4983032;28;20092;-93
2024/03/21 08:37:16;;;;;;;26.08;20.80;;;;;;;;;;4997527;28;20022;-91
2024/03/21 08:39:47;;;;;;;26.00;20.17;;;;;;;;;;4990920;28;20042;-92
2024/03/21 08:42:13;;;;;;;24.17;20.75;;;;;;;;;;5005824;28;20010;-91
2024/03/21 08:44:39;;;;;;;23.65;19.88;;;;;;;;;;4997920;28;20034;-91
2024/03/21 08:47:05;;;;;;;25.35;20.58;;;;;;;;;;4988779;28;20522;-90
2024/03/21 08:49:31;;;;;;;22.25;18.95;;;;;;;;;;4978292;28;20041;-92
2024/03/21 08:51:57;;;;;;;24.15;21.05;;;;;;;;;;4977829;28;20049;-91
2024/03/21 08:54:24;;;;;;;24.33;20.25;;;;;;;;;;4979707;28;20113;-91
2024/03/21 08:56:51;;;;;;;25.45;20.10;;;;;;;;;;4994615;28;20150;-89
2024/03/21 08:59:19;;;;;;;23.45;19.55;;;;;;;;;;5000928;28;20136;-92
2024/03/21 09:01:45;;;;;;;26.55;20.58;;;;;;;;;;4996833;28;20038;-93
2024/03/21 09:04:11;;;;;;;26.10;20.85;;;;;;;;;;4981879;28;20031;-92
2024/03/21 09:06:37;;;;;;;24.88;19.23;;;;;;;;;;4981384;28;20026;-91
2024/03/21 09:09:06;;;;;;;24.25;20.13;;;;;;;;;;4981566;28;20036;-89
2024/03/21 09:11:35;;;;;;;30.13;22.00;;;;;;;;;;4981586;28;20022;-90
2024/03/21 09:14:02;;;;;;;24.63;20.42;;;;;;;;;;4981487;28;20034;-91
2024/03/21 09:16:28;;;;;;;24.08;20.30;;;;;;;;;;4981376;28;20058;-91
2024/03/21 09:18:54;;;;;;;25.08;20.60;;;;;;;;;;4981294;28;20146;-91
2024/03/21 09:21:21;;;;;;;29.10;21.70;;;;;;;;;;5000675;28;20026;-91
2024/03/21 09:23:47;;;;;;;25.25;20.05;;;;;;;;;;5013946;28;20006;-91
2024/03/21 09:26:13;;;;;;;26.80;20.45;;;;;;;;;;5006215;28;20040;-92
2024/03/21 09:28:39;;;;;;;24.25;20.65;;;;;;;;;;5001688;28;20026;-91
2024/03/21 09:31:05;;;;;;;27.63;20.92;;;;;;;;;;5001083;28;20037;-91
2024/03/21 09:33:35;;;;;;;23.50;20.42;;;;;;;;;;4985969;28;20026;-91
2024/03/21 09:36:06;;;;;;;25.33;20.33;;;;;;;;;;4980998;28;20019;-91
2024/03/21 09:38:32;;;;;;;27.67;22.30;;;;;;;;;;4980903;28;20034;-91
2024/03/21 09:41:00;;;;;;;26.60;22.75;;;;;;;;;;4981859;28;20117;-90
2024/03/21 09:43:26;;;;;;;27.00;21.90;;;;;;;;;;5011972;28;20018;-92
2024/03/21 09:45:53;;;;;;;27.73;21.77;;;;;;;;;;5002593;28;20037;-92
2024/03/21 09:48:19;;;;;;;29.10;22.67;;;;;;;;;;5000212;28;20026;-92
2024/03/21 09:50:46;;;;;;;28.38;22.70;;;;;;;;;;5001958;28;20036;-91
2024/03/21 09:53:16;;;;;;;28.13;22.98;;;;;;;;;;4991648;28;20034;-90
2024/03/21 09:55:43;;;;;;;26.10;21.48;;;;;;;;;;4977459;28;20030;-93
2024/03/21 09:58:13;;;;;;;25.85;21.40;;;;;;;;;;4976696;28;20039;-93
2024/03/21 10:00:43;;;;;;;28.60;22.67;;;;;;;;;;4978125;28;20472;-90
2024/03/21 10:03:16;;;;;;;28.35;22.33;;;;;;;;;;4980619;28;20117;-92
2024/03/21 10:05:44;;;;;;;27.55;21.83;;;;;;;;;;4960860;28;20034;-91
2024/03/21 10:08:11;;;;;;;27.95;23.25;;;;;;;;;;4960506;28;20117;-91
2024/03/21 10:10:38;;;;;;;27.05;22.55;;;;;;;;;;4961011;28;20027;-93
2024/03/21 10:13:05;;;;;;;27.20;22.30;;;;;;;;;;4961548;28;20053;-91
2024/03/21 10:15:32;;;;;;;30.30;22.48;;;;;;;;;;4961455;28;20031;-92
2024/03/21 10:18:01;;;;;;;27.13;22.95;;;;;;;;;;4999402;28;20402;-91
2024/03/21 10:20:28;;;;;;;29.23;23.98;;;;;;;;;;4999523;28;20029;-91
2024/03/21 10:22:58;;;;;;;31.45;24.85;;;;;;;;;;5017175;28;20030;-91
2024/03/21 10:25:27;;;;;;;30.92;25.58;;;;;;;;;;4994415;28;20031;-91
2024/03/21 10:27:54;;;;;;;30.52;25.30;;;;;;;;;;5009936;28;20031;-91
2024/03/21 10:30:21;;;;;;;31.48;24.75;;;;;;;;;;4989332;28;20034;-90
2024/03/21 10:32:47;;;;;;;31.23;25.17;;;;;;;;;;4980018;28;20023;-92
2024/03/21 10:35:15;;;;;;;31.00;25.05;;;;;;;;;;4988420;28;20034;-93
2024/03/21 10:37:42;;;;;;;30.30;25.40;;;;;;;;;;4980559;28;20019;-95
2024/03/21 10:40:10;;;;;;;30.75;25.77;;;;;;;;;;4979704;28;20507;-89
2024/03/21 10:42:38;;;;;;;32.83;25.40;;;;;;;;;;4979778;28;20113;-90
2024/03/21 10:45:04;;;;;;;33.17;26.92;;;;;;;;;;4979769;28;20034;-91
2024/03/21 10:47:31;;;;;;;33.15;27.25;;;;;;;;;;4979966;28;20058;-91
2024/03/21 10:49:57;;;;;;;43.00;29.67;;;;;;;;;;4986982;28;20131;-92
2024/03/21 10:52:23;;;;;;;32.80;28.15;;;;;;;;;;4998714;28;20463;-91
2024/03/21 10:54:53;;;;;;;34.05;28.95;;;;;;;;;;4988361;28;20519;-91
2024/03/21 10:57:23;;;;;;;34.70;29.60;;;;;;;;;;4980506;28;20059;-90
2024/03/21 10:59:57;;;;;;;34.83;28.13;;;;;;;;;;4998780;28;20514;-90
2024/03/21 11:02:26;;;;;;;36.15;29.55;;;;;;;;;;4997651;28;20018;-91
2024/03/21 11:04:59;;;;;;;33.30;29.70;;;;;;;;;;4978744;28;20040;-92
2024/03/21 11:07:31;;;;;;;35.58;31.70;;;;;;;;;;4979225;28;20030;-90
2024/03/21 11:09:57;;;;;;;35.83;29.92;;;;;;;;;;4979364;28;20043;-89
2024/03/21 11:12:23;;;;;;;35.92;32.20;;;;;;;;;;5005048;28;20117;-87
2024/03/21 11:14:49;;;;;;;38.55;34.35;;;;;;;;;;4997234;28;20037;-90
2024/03/21 11:17:15;;;;;;;37.60;30.92;;;;;;;;;;4979275;28;20026;-89
2024/03/21 11:19:42;;;;;;;35.90;32.08;;;;;;;;;;4978009;28;20066;-89
2024/03/21 11:22:16;;;;;;;34.08;28.73;;;;;;;;;;4979158;28;20062;-91
2024/03/21 11:24:54;;;;;;;33.72;27.65;;;;;;;;;;4991888;28;20131;-94
2024/03/21 11:27:29;;;;;;;35.72;31.90;;;;;;;;;;4978801;28;20058;-90
2024/03/21 11:29:55;;;;;;;33.40;28.50;;;;;;;;;;4978444;28;20113;-91
2024/03/21 11:32:23;;;;;;;35.33;27.95;;;;;;;;;;4975501;28;20030;-91
2024/03/21 11:34:53;;;;;;;34.97;28.60;;;;;;;;;;4977597;28;20030;-89
2024/03/21 11:37:19;;;;;;;32.53;27.95;;;;;;;;;;4995775;28;20026;-90
2024/03/21 11:39:53;;;;;;;31.25;27.15;;;;;;;;;;4975536;28;20494;-88
2024/03/21 11:42:25;;;;;;;35.33;27.90;;;;;;;;;;4977698;28;20114;-90
2024/03/21 11:44:51;;;;;;;33.03;29.42;;;;;;;;;;4978097;28;20026;-91
2024/03/21 11:47:18;;;;;;;35.05;30.02;;;;;;;;;;4975271;28;20406;-89
2024/03/21 11:49:59;;;;;;;37.17;33.38;;;;;;;;;;4978227;28;20027;-92
2024/03/21 11:52:26;;;;;;;38.42;33.20;;;;;;;;;;4967862;28;20039;-91
2024/03/21 11:54:52;;;;;;;36.85;32.85;;;;;;;;;;4977553;28;20119;-91
2024/03/21 11:57:18;;;;;;;39.80;33.58;;;;;;;;;;4976932;28;20546;-90
2024/03/21 11:59:49;;;;;;;36.20;31.17;;;;;;;;;;4977694;28;20062;-90
2024/03/21 12:02:17;;;;;;;35.13;29.27;;;;;;;;;;4977892;28;20070;-92
2024/03/21 12:04:43;;;;;;;33.72;30.02;;;;;;;;;;4977720;28;20471;-91
2024/03/21 12:07:11;;;;;;;33.28;28.23;;;;;;;;;;4978314;28;20054;-92
2024/03/21 12:09:37;;;;;;;35.42;28.88;;;;;;;;;;5000133;28;20034;-91
2024/03/21 12:12:03;;;;;;;38.45;30.27;;;;;;;;;;4998002;28;20030;-92
2024/03/21 12:14:30;;;;;;;33.53;26.25;;;;;;;;;;4982867;28;20395;-89
2024/03/21 12:16:56;;;;;;;33.65;25.70;;;;;;;;;;5007560;28;20466;-92
2024/03/21 12:19:22;;;;;;;33.47;26.70;;;;;;;;;;4997625;28;20129;-91
2024/03/21 12:21:48;;;;;;;32.30;27.13;;;;;;;;;;4997358;28;20034;-90
2024/03/21 12:24:15;;;;;;;34.38;26.17;;;;;;;;;;5010989;28;20061;-91
2024/03/21 12:26:44;;;;;;;32.90;27.27;;;;;;;;;;5003814;28;20026;-92
2024/03/21 12:29:10;;;;;;;33.78;29.02;;;;;;;;;;4978639;28;20030;-91
2024/03/21 12:31:36;;;;;;;34.80;27.50;;;;;;;;;;4978138;28;20026;-91
2024/03/21 12:34:02;;;;;;;34.67;29.80;;;;;;;;;;4977884;28;20129;-92
2024/03/21 12:36:28;;;;;;;37.60;29.27;;;;;;;;;;4979129;28;20034;-93
2024/03/21 12:38:55;;;;;;;37.50;28.58;;;;;;;;;;4978626;28;20034;-92
2024/03/21 12:41:21;;;;;;;36.45;28.58;;;;;;;;;;4997466;28;20033;-93
2024/03/21 12:43:47;;;;;;;37.80;26.45;;;;;;;;;;5001496;28;20034;-90
2024/03/21 12:46:15;;;;;;;36.65;29.48;;;;;;;;;;5002068;28;20145;-91
2024/03/21 12:48:42;;;;;;;33.17;27.50;;;;;;;;;;4997204;28;20133;-92
2024/03/21 12:51:13;;;;;;;34.20;27.02;;;;;;;;;;4997411;28;20503;-90
2024/03/21 12:53:39;;;;;;;32.38;25.58;;;;;;;;;;4996834;28;20049;-92
2024/03/21 12:56:06;;;;;;;38.00;29.50;;;;;;;;;;4996891;28;20030;-90
2024/03/21 12:58:32;;;;;;;35.17;27.83;;;;;;;;;;4984348;28;20141;-92
2024/03/21 13:00:58;;;;;;;39.67;30.60;;;;;;;;;;4977446;28;20026;-92
2024/03/21 13:03:24;;;;;;;51.95;30.67;;;;;;;;;;4977358;28;20023;-91
2024/03/21 13:05:50;;;;;;;42.78;28.95;;;;;;;;;;4977433;28;20034;-92
2024/03/21 13:08:17;;;;;;;41.05;29.80;;;;;;;;;;4977508;28;20084;-92
2024/03/21 13:10:43;;;;;;;37.22;30.75;;;;;;;;;;4977352;28;20022;-90
2024/03/21 13:13:09;;;;;;;38.55;30.15;;;;;;;;;;4977378;28;20472;-92
2024/03/21 13:15:35;;;;;;;39.28;29.73;;;;;;;;;;4977200;28;20026;-91
2024/03/21 13:18:02;;;;;;;41.35;30.05;;;;;;;;;;4977060;28;20031;-91
2024/03/21 13:20:28;;;;;;;38.22;30.73;;;;;;;;;;4977638;28;20030;-93
2024/03/21 13:22:54;;;;;;;40.78;32.03;;;;;;;;;;4977129;28;20110;-90
2024/03/21 13:25:21;;;;;;;38.40;33.30;;;;;;;;;;4970820;28;20055;-94
2024/03/21 13:27:48;;;;;;;38.35;31.30;;;;;;;;;;4957827;28;20023;-92
2024/03/21 13:30:14;;;;;;;34.60;29.58;;;;;;;;;;4971287;28;20031;-93
2024/03/21 13:32:41;;;;;;;37.10;29.02;;;;;;;;;;4978544;28;20106;-92
2024/03/21 13:35:10;;;;;;;34.70;28.38;;;;;;;;;;4966973;28;20471;-91
2024/03/21 13:37:37;;;;;;;36.88;28.80;;;;;;;;;;4972500;28;20038;-92
2024/03/21 13:40:05;;;;;;;37.05;29.73;;;;;;;;;;4975505;28;20064;-91
2024/03/21 13:42:31;;;;;;;37.42;30.70;;;;;;;;;;4972446;28;20022;-92
2024/03/21 13:44:58;;;;;;;35.70;29.27;;;;;;;;;;4980806;28;20490;-91
2024/03/21 13:47:24;;;;;;;34.35;27.40;;;;;;;;;;4980746;28;20065;-91
2024/03/21 13:49:50;;;;;;;40.70;28.90;;;;;;;;;;4986091;28;20010;-92
2024/03/21 13:52:16;;;;;;;36.78;28.35;;;;;;;;;;4995506;28;20030;-89
2024/03/21 13:54:43;;;;;;;33.10;27.98;;;;;;;;;;4993563;28;20022;-93
2024/03/21 13:57:10;;;;;;;34.13;28.08;;;;;;;;;;4981794;28;20030;-92
2024/03/21 13:59:38;;;;;;;38.00;28.92;;;;;;;;;;4999882;28;20490;-90
2024/03/21 14:02:04;;;;;;;39.97;28.92;;;;;;;;;;5001822;28;20030;-94
2024/03/21 14:04:31;;;;;;;33.63;28.48;;;;;;;;;;5001132;28;20034;-96
2024/03/21 14:06:58;;;;;;;37.17;30.40;;;;;;;;;;5017386;28;20034;-94
2024/03/21 14:09:44;;;;;;;39.20;29.38;;;;;;;;;;5003752;28;20030;-95
2024/03/21 14:12:10;;;;;;;40.15;30.85;;;;;;;;;;5000615;28;20037;-94
2024/03/21 14:14:37;;;;;;;37.42;31.17;;;;;;;;;;5008938;28;20040;-90
2024/03/21 14:17:03;;;;;;;44.50;31.75;;;;;;;;;;5010274;28;20034;-91
2024/03/21 14:19:29;;;;;;;39.28;30.95;;;;;;;;;;5000024;28;20038;-94
2024/03/21 14:21:55;;;;;;;39.67;33.95;;;;;;;;;;4970718;28;20061;-95
2024/03/21 14:24:22;;;;;;;43.80;35.20;;;;;;;;;;5000708;28;20144;-90
2024/03/21 14:26:48;;;;;;;38.65;32.88;;;;;;;;;;4999332;28;20105;-92